Time,TemperatureF,DewpointF,PressureIn,WindDirection,WindDirectionDegrees,WindSpeedMPH,WindSpeedGustMPH,Humidity,HourlyPrecipIn,Conditions,Clouds,dailyrainin,SoftwareType,DateUTC
2015-08-01 00:00:00,55.0,50.0,-100.00,NNW,335,6.0,-999.0,85,-99.99,,,-99.99,,2015-08-01 07:00:00,
2015-08-01 00:24:00,55.0,50.0,-100.00,NNW,335,6.0,-999.0,85,-99.99,,,-99.99,,2015-08-01 07:24:00,
2015-08-01 00:33:00,55.0,50.0,-100.00,NNW,335,6.0,-999.0,85,-99.99,,,-99.99,,2015-08-01 07:33:00,
2015-08-01 00:44:00,55.0,50.0,-100.00,NNW,335,6.0,-999.0,85,-99.99,,,-99.99,,2015-08-01 07:44:00,
2015-08-01 00:53:00,55.0,50.0,-100.00,NNW,335,6.0,-999.0,85,-99.99,,,-99.99,,2015-08-01 07:53:00,
2015-08-01 01:00:00,53.0,49.0,-100.00,NNW,343,8.0,-999.0,87,-99.99,,,-99.99,,2015-08-01 08:00:00,
2015-08-01 01:23:00,53.0,49.0,-100.00,NNW,343,8.0,-999.0,87,-99.99,,,-99.99,,2015-08-01 08:23:00,
2015-08-01 01:34:00,53.0,49.0,-100.00,NNW,343,8.0,-999.0,87,-99.99,,,-99.99,,2015-08-01 08:34:00,
2015-08-01 01:43:00,53.0,49.0,-100.00,NNW,343,8.0,-999.0,87,-99.99,,,-99.99,,2015-08-01 08:43:00,
2015-08-01 01:53:00,53.0,49.0,-100.00,NNW,343,8.0,-999.0,87,-99.99,,,-99.99,,2015-08-01 08:53:00,
2015-08-01 02:00:00,51.0,48.0,-100.00,North,9,9.0,-999.0,89,-99.99,,,-99.99,,2015-08-01 09:00:00,
2015-08-01 02:23:00,51.0,48.0,-100.00,North,9,9.0,-999.0,89,-99.99,,,-99.99,,2015-08-01 09:23:00,
2015-08-01 02:33:00,51.0,48.0,-100.00,North,9,9.0,-999.0,89,-99.99,,,-99.99,,2015-08-01 09:33:00,
2015-08-01 02:44:00,51.0,48.0,-100.00,North,9,9.0,-999.0,89,-99.99,,,-99.99,,2015-08-01 09:44:00,
2015-08-01 02:56:00,51.0,48.0,-100.00,North,9,9.0,-999.0,89,-99.99,,,-99.99,,2015-08-01 09:56:00,
2015-08-01 03:00:00,49.0,46.0,-100.00,NE,35,10.0,-999.0,91,-99.99,,,-99.99,,2015-08-01 10:00:00,
2015-08-01 03:34:00,49.0,46.0,-100.00,NE,35,10.0,-999.0,91,-99.99,,,-99.99,,2015-08-01 10:34:00,
2015-08-01 03:44:00,49.0,46.0,-100.00,NE,35,10.0,-999.0,91,-99.99,,,-99.99,,2015-08-01 10:44:00,
2015-08-01 03:54:00,49.0,46.0,-100.00,NE,35,10.0,-999.0,91,-99.99,,,-99.99,,2015-08-01 10:54:00,
2015-08-01 04:00:00,47.0,44.0,-100.00,NNE,19,12.0,-999.0,91,-99.99,,,-99.99,,2015-08-01 11:00:00,
2015-08-01 04:34:00,47.0,44.0,-100.00,NNE,19,12.0,-999.0,91,-99.99,,,-99.99,,2015-08-01 11:34:00,
2015-08-01 04:44:00,47.0,44.0,-100.00,NNE,19,12.0,-999.0,91,-99.99,,,-99.99,,2015-08-01 11:44:00,
2015-08-01 04:54:00,47.0,44.0,-100.00,NNE,19,12.0,-999.0,91,-99.99,,,-99.99,,2015-08-01 11:54:00,
2015-08-01 05:00:00,46.0,44.0,-100.00,NNW,327,12.0,-999.0,92,-99.99,,,-99.99,,2015-08-01 12:00:00,
2015-08-01 05:44:00,46.0,44.0,-100.00,NNW,327,12.0,-999.0,92,-99.99,,,-99.99,,2015-08-01 12:44:00,
2015-08-01 05:54:00,46.0,44.0,-100.00,NNW,327,12.0,-999.0,92,-99.99,,,-99.99,,2015-08-01 12:54:00,
2015-08-01 06:00:00,45.0,43.0,-100.00,North,5,11.0,-999.0,91,-99.99,,,-99.99,,2015-08-01 13:00:00,
2015-08-01 06:24:00,45.0,43.0,-100.00,North,5,11.0,-999.0,91,-99.99,,,-99.99,,2015-08-01 13:24:00,
2015-08-01 06:34:00,45.0,43.0,-100.00,North,5,11.0,-999.0,91,-99.99,,,-99.99,,2015-08-01 13:34:00,
2015-08-01 06:44:00,45.0,43.0,-100.00,North,5,11.0,-999.0,91,-99.99,,,-99.99,,2015-08-01 13:44:00,
2015-08-01 06:53:00,45.0,43.0,-100.00,North,5,11.0,-999.0,91,-99.99,,,-99.99,,2015-08-01 13:53:00,
2015-08-01 07:33:00,44.0,42.0,-100.00,NNW,330,11.0,-999.0,92,-99.99,,,-99.99,,2015-08-01 14:33:00,
2015-08-01 08:00:00,51.0,46.0,-100.00,NNW,335,6.0,-999.0,83,-99.99,,,-99.99,,2015-08-01 15:00:00,
2015-08-01 08:34:00,51.0,46.0,-100.00,NNW,335,6.0,-999.0,83,-99.99,,,-99.99,,2015-08-01 15:34:00,
2015-08-01 08:44:00,51.0,46.0,-100.00,NNW,335,6.0,-999.0,83,-99.99,,,-99.99,,2015-08-01 15:44:00,
2015-08-01 08:53:00,51.0,46.0,-100.00,NNW,335,6.0,-999.0,83,-99.99,,,-99.99,,2015-08-01 15:53:00,
2015-08-01 09:00:00,60.0,50.0,-100.00,NNW,336,6.0,-999.0,68,-99.99,,,-99.99,,2015-08-01 16:00:00,
2015-08-01 09:44:00,60.0,50.0,-100.00,NNW,336,6.0,-999.0,68,-99.99,,,-99.99,,2015-08-01 16:44:00,
2015-08-01 09:54:00,60.0,50.0,-100.00,NNW,336,6.0,-999.0,68,-99.99,,,-99.99,,2015-08-01 16:54:00,
2015-08-01 10:00:00,71.0,47.0,-100.00,NNW,338,6.0,-999.0,42,-99.99,,,-99.99,,2015-08-01 17:00:00,
2015-08-01 10:44:00,71.0,47.0,-100.00,NNW,338,6.0,-999.0,42,-99.99,,,-99.99,,2015-08-01 17:44:00,
2015-08-01 10:54:00,71.0,47.0,-100.00,NNW,338,6.0,-999.0,42,-99.99,,,-99.99,,2015-08-01 17:54:00,
2015-08-01 18:23:00,75.0,54.0,-100.00,NNW,331,-999.9,-999.0,48,-99.99,,,-99.99,,2015-08-02 01:23:00,
2015-08-01 18:33:00,75.0,54.0,-100.00,NNW,331,9.0,-999.0,48,-99.99,,,-99.99,,2015-08-02 01:33:00,